sensor_id;sensor_type;location;lat;lon;timestamp;P1;durP1;ratioP1;P2;durP2;ratioP2
33010;SDS011;19370;48.562;9.196;2024-03-22T00:01:14;12.50;;;7.40;;
33010;SDS011;19370;48.562;9.196;2024-03-22T00:03:40;12.02;;;7.07;;
33010;SDS011;19370;48.562;9.196;2024-03-22T00:06:06;13.27;;;7.28;;
33010;SDS011;19370;48.562;9.196;2024-03-22T00:08:32;15.63;;;7.50;;
33010;SDS011;19370;48.562;9.196;2024-03-22T00:11:00;14.87;;;7.60;;
33010;SDS011;19370;48.562;9.196;2024-03-22T00:13:26;13.82;;;7.40;;
33010;SDS011;19370;48.562;9.196;2024-03-22T00:18:34;12.98;;;7.30;;
33010;SDS011;19370;48.562;9.196;2024-03-22T00:21:00;14.13;;;7.93;;
33010;SDS011;19370;48.562;9.196;2024-03-22T00:23:27;20.03;;;9.47;;
33010;SDS011;19370;48.562;9.196;2024-03-22T00:25:55;16.92;;;9.80;;
33010;SDS011;19370;48.562;9.196;2024-03-22T00:28:21;16.92;;;9.55;;
33010;SDS011;19370;48.562;9.196;2024-03-22T00:30:55;15.40;;;8.65;;
33010;SDS011;19370;48.562;9.196;2024-03-22T00:33:21;15.23;;;9.20;;
33010;SDS011;19370;48.562;9.196;2024-03-22T00:35:47;14.90;;;8.97;;
33010;SDS011;19370;48.562;9.196;2024-03-22T00:38:13;16.40;;;8.77;;
33010;SDS011;19370;48.562;9.196;2024-03-22T00:40:39;19.15;;;10.05;;
33010;SDS011;19370;48.562;9.196;2024-03-22T00:43:06;17.05;;;9.10;;
33010;SDS011;19370;48.562;9.196;2024-03-22T00:45:32;18.87;;;9.83;;
33010;SDS011;19370;48.562;9.196;2024-03-22T00:47:58;17.38;;;10.05;;
33010;SDS011;19370;48.562;9.196;2024-03-22T00:50:29;16.55;;;9.23;;
33010;SDS011;19370;48.562;9.196;2024-03-22T00:52:55;16.45;;;9.35;;
33010;SDS011;19370;48.562;9.196;2024-03-22T00:55:22;17.05;;;9.52;;
33010;SDS011;19370;48.562;9.196;2024-03-22T00:57:49;16.97;;;9.37;;
33010;SDS011;19370;48.562;9.196;2024-03-22T01:00:17;14.57;;;9.63;;
33010;SDS011;19370;48.562;9.196;2024-03-22T01:02:43;16.42;;;9.75;;
33010;SDS011;19370;48.562;9.196;2024-03-22T01:07:39;16.20;;;9.55;;
33010;SDS011;19370;48.562;9.196;2024-03-22T01:10:05;14.70;;;9.23;;
33010;SDS011;19370;48.562;9.196;2024-03-22T01:12:36;14.18;;;8.77;;
33010;SDS011;19370;48.562;9.196;2024-03-22T01:15:04;16.33;;;9.55;;
33010;SDS011;19370;48.562;9.196;2024-03-22T01:17:31;17.20;;;9.25;;
33010;SDS011;19370;48.562;9.196;2024-03-22T01:20:05;16.58;;;8.70;;
33010;SDS011;19370;48.562;9.196;2024-03-22T01:22:36;14.73;;;8.70;;
33010;SDS011;19370;48.562;9.196;2024-03-22T01:25:02;17.50;;;9.95;;
33010;SDS011;19370;48.562;9.196;2024-03-22T01:27:28;15.27;;;9.52;;
33010;SDS011;19370;48.562;9.196;2024-03-22T01:29:54;15.02;;;8.77;;
33010;SDS011;19370;48.562;9.196;2024-03-22T01:32:20;17.50;;;9.57;;
33010;SDS011;19370;48.562;9.196;2024-03-22T01:34:46;15.48;;;9.50;;
33010;SDS011;19370;48.562;9.196;2024-03-22T01:37:12;15.77;;;9.00;;
33010;SDS011;19370;48.562;9.196;2024-03-22T01:39:53;16.17;;;9.23;;
33010;SDS011;19370;48.562;9.196;2024-03-22T01:42:19;16.20;;;9.07;;
33010;SDS011;19370;48.562;9.196;2024-03-22T01:44:45;15.85;;;8.80;;
33010;SDS011;19370;48.562;9.196;2024-03-22T01:47:11;18.73;;;9.43;;
33010;SDS011;19370;48.562;9.196;2024-03-22T01:49:37;16.35;;;9.10;;
33010;SDS011;19370;48.562;9.196;2024-03-22T01:52:03;14.97;;;8.60;;
33010;SDS011;19370;48.562;9.196;2024-03-22T01:54:37;17.38;;;9.60;;
33010;SDS011;19370;48.562;9.196;2024-03-22T01:57:03;16.55;;;10.23;;
33010;SDS011;19370;48.562;9.196;2024-03-22T01:59:47;18.05;;;9.45;;
33010;SDS011;19370;48.562;9.196;2024-03-22T02:02:17;17.42;;;10.07;;
33010;SDS011;19370;48.562;9.196;2024-03-22T02:04:43;18.53;;;10.50;;
33010;SDS011;19370;48.562;9.196;2024-03-22T02:07:10;20.17;;;10.95;;
33010;SDS011;19370;48.562;9.196;2024-03-22T02:09:36;18.52;;;10.07;;
33010;SDS011;19370;48.562;9.196;2024-03-22T02:12:02;17.55;;;9.13;;
33010;SDS011;19370;48.562;9.196;2024-03-22T02:14:28;17.20;;;8.93;;
33010;SDS011;19370;48.562;9.196;2024-03-22T02:16:54;15.50;;;8.33;;
33010;SDS011;19370;48.562;9.196;2024-03-22T02:19:20;15.40;;;9.10;;
33010;SDS011;19370;48.562;9.196;2024-03-22T02:21:48;17.38;;;9.40;;
33010;SDS011;19370;48.562;9.196;2024-03-22T02:24:14;17.23;;;9.38;;
33010;SDS011;19370;48.562;9.196;2024-03-22T02:26:40;15.40;;;9.07;;
33010;SDS011;19370;48.562;9.196;2024-03-22T02:29:08;16.67;;;9.45;;
33010;SDS011;19370;48.562;9.196;2024-03-22T02:31:35;17.08;;;9.27;;
33010;SDS011;19370;48.562;9.196;2024-03-22T02:34:01;16.25;;;9.48;;
33010;SDS011;19370;48.562;9.196;2024-03-22T02:36:35;15.82;;;8.25;;
33010;SDS011;19370;48.562;9.196;2024-03-22T02:39:01;15.90;;;8.73;;
33010;SDS011;19370;48.562;9.196;2024-03-22T02:41:27;15.85;;;8.98;;
33010;SDS011;19370;48.562;9.196;2024-03-22T02:43:53;15.60;;;9.02;;
33010;SDS011;19370;48.562;9.196;2024-03-22T02:46:21;15.52;;;8.70;;
33010;SDS011;19370;48.562;9.196;2024-03-22T02:48:58;17.85;;;9.43;;
33010;SDS011;19370;48.562;9.196;2024-03-22T02:51:24;15.00;;;8.70;;
33010;SDS011;19370;48.562;9.196;2024-03-22T02:53:49;15.77;;;8.50;;
33010;SDS011;19370;48.562;9.196;2024-03-22T02:56:15;16.08;;;9.25;;
33010;SDS011;19370;48.562;9.196;2024-03-22T02:58:41;16.30;;;9.43;;
33010;SDS011;19370;48.562;9.196;2024-03-22T03:01:10;17.25;;;9.05;;
33010;SDS011;19370;48.562;9.196;2024-03-22T03:03:36;16.52;;;8.93;;
33010;SDS011;19370;48.562;9.196;2024-03-22T03:06:02;17.55;;;8.98;;
33010;SDS011;19370;48.562;9.196;2024-03-22T03:08:29;16.50;;;9.88;;
33010;SDS011;19370;48.562;9.196;2024-03-22T03:10:55;17.03;;;9.13;;
33010;SDS011;19370;48.562;9.196;2024-03-22T03:13:21;16.70;;;8.82;;
33010;SDS011;19370;48.562;9.196;2024-03-22T03:15:47;16.30;;;9.13;;
33010;SDS011;19370;48.562;9.196;2024-03-22T03:18:12;16.35;;;9.23;;
33010;SDS011;19370;48.562;9.196;2024-03-22T03:20:38;16.75;;;9.82;;
33010;SDS011;19370;48.562;9.196;2024-03-22T03:23:04;15.60;;;8.90;;
33010;SDS011;19370;48.562;9.196;2024-03-22T03:25:30;17.55;;;9.90;;
33010;SDS011;19370;48.562;9.196;2024-03-22T03:27:56;16.73;;;10.23;;
33010;SDS011;19370;48.562;9.196;2024-03-22T03:30:22;15.95;;;10.15;;
33010;SDS011;19370;48.562;9.196;2024-03-22T03:32:48;15.48;;;9.57;;
33010;SDS011;19370;48.562;9.196;2024-03-22T03:35:14;14.85;;;8.63;;
33010;SDS011;19370;48.562;9.196;2024-03-22T03:37:40;15.85;;;8.73;;
33010;SDS011;19370;48.562;9.196;2024-03-22T03:40:06;16.83;;;9.20;;
33010;SDS011;19370;48.562;9.196;2024-03-22T03:42:33;15.48;;;8.65;;
33010;SDS011;19370;48.562;9.196;2024-03-22T03:44:59;17.05;;;9.20;;
33010;SDS011;19370;48.562;9.196;2024-03-22T03:47:25;17.00;;;8.60;;
33010;SDS011;19370;48.562;9.196;2024-03-22T03:49:50;15.10;;;8.15;;
33010;SDS011;19370;48.562;9.196;2024-03-22T03:54:48;13.80;;;7.28;;
33010;SDS011;19370;48.562;9.196;2024-03-22T03:57:14;15.95;;;8.50;;
33010;SDS011;19370;48.562;9.196;2024-03-22T03:59:40;17.23;;;9.88;;
33010;SDS011;19370;48.562;9.196;2024-03-22T04:02:06;15.65;;;8.35;;
33010;SDS011;19370;48.562;9.196;2024-03-22T04:04:32;15.63;;;8.60;;
33010;SDS011;19370;48.562;9.196;2024-03-22T04:06:58;16.92;;;8.65;;
33010;SDS011;19370;48.562;9.196;2024-03-22T04:09:24;16.50;;;8.70;;
33010;SDS011;19370;48.562;9.196;2024-03-22T04:11:50;15.90;;;8.70;;
33010;SDS011;19370;48.562;9.196;2024-03-22T04:14:16;15.35;;;8.65;;
33010;SDS011;19370;48.562;9.196;2024-03-22T04:16:42;14.10;;;8.80;;
33010;SDS011;19370;48.562;9.196;2024-03-22T04:19:08;14.85;;;8.57;;
33010;SDS011;19370;48.562;9.196;2024-03-22T04:21:44;15.40;;;8.57;;
33010;SDS011;19370;48.562;9.196;2024-03-22T04:24:10;15.77;;;8.27;;
33010;SDS011;19370;48.562;9.196;2024-03-22T04:26:36;14.87;;;8.87;;
33010;SDS011;19370;48.562;9.196;2024-03-22T04:29:02;14.73;;;8.30;;
33010;SDS011;19370;48.562;9.196;2024-03-22T04:31:28;14.57;;;8.70;;
33010;SDS011;19370;48.562;9.196;2024-03-22T04:33:54;15.38;;;8.40;;
33010;SDS011;19370;48.562;9.196;2024-03-22T04:36:20;16.23;;;8.87;;
33010;SDS011;19370;48.562;9.196;2024-03-22T04:38:47;16.77;;;8.60;;
33010;SDS011;19370;48.562;9.196;2024-03-22T04:41:13;15.68;;;8.75;;
33010;SDS011;19370;48.562;9.196;2024-03-22T04:43:39;14.65;;;8.13;;
33010;SDS011;19370;48.562;9.196;2024-03-22T04:46:08;15.27;;;8.18;;
33010;SDS011;19370;48.562;9.196;2024-03-22T04:48:34;13.30;;;7.40;;
33010;SDS011;19370;48.562;9.196;2024-03-22T04:51:00;14.35;;;8.15;;
33010;SDS011;19370;48.562;9.196;2024-03-22T04:53:26;15.45;;;8.27;;
33010;SDS011;19370;48.562;9.196;2024-03-22T04:55:52;13.68;;;8.00;;
33010;SDS011;19370;48.562;9.196;2024-03-22T04:58:18;15.55;;;7.97;;
33010;SDS011;19370;48.562;9.196;2024-03-22T05:00:45;18.52;;;8.80;;
33010;SDS011;19370;48.562;9.196;2024-03-22T05:03:11;15.27;;;8.25;;
33010;SDS011;19370;48.562;9.196;2024-03-22T05:05:37;14.85;;;8.52;;
33010;SDS011;19370;48.562;9.196;2024-03-22T05:08:04;16.90;;;8.10;;
33010;SDS011;19370;48.562;9.196;2024-03-22T05:10:30;17.02;;;9.27;;
33010;SDS011;19370;48.562;9.196;2024-03-22T05:12:56;15.65;;;8.88;;
33010;SDS011;19370;48.562;9.196;2024-03-22T05:15:22;15.30;;;8.60;;
33010;SDS011;19370;48.562;9.196;2024-03-22T05:17:52;17.13;;;9.15;;
33010;SDS011;19370;48.562;9.196;2024-03-22T05:20:18;14.10;;;8.30;;
33010;SDS011;19370;48.562;9.196;2024-03-22T05:22:44;15.32;;;8.80;;
33010;SDS011;19370;48.562;9.196;2024-03-22T05:25:10;15.38;;;9.48;;
33010;SDS011;19370;48.562;9.196;2024-03-22T05:27:37;14.45;;;8.00;;
33010;SDS011;19370;48.562;9.196;2024-03-22T05:30:03;14.77;;;8.13;;
33010;SDS011;19370;48.562;9.196;2024-03-22T05:32:29;15.55;;;8.50;;
33010;SDS011;19370;48.562;9.196;2024-03-22T05:34:55;17.15;;;9.43;;
33010;SDS011;19370;48.562;9.196;2024-03-22T05:37:21;16.15;;;8.75;;
33010;SDS011;19370;48.562;9.196;2024-03-22T05:39:48;17.20;;;9.43;;
33010;SDS011;19370;48.562;9.196;2024-03-22T05:42:14;18.17;;;9.23;;
33010;SDS011;19370;48.562;9.196;2024-03-22T05:44:40;15.10;;;9.45;;
33010;SDS011;19370;48.562;9.196;2024-03-22T05:47:06;19.58;;;9.65;;
33010;SDS011;19370;48.562;9.196;2024-03-22T05:49:32;15.93;;;9.32;;
33010;SDS011;19370;48.562;9.196;2024-03-22T05:51:58;17.40;;;9.87;;
33010;SDS011;19370;48.562;9.196;2024-03-22T05:54:24;16.15;;;8.40;;
33010;SDS011;19370;48.562;9.196;2024-03-22T05:56:50;17.40;;;9.93;;
33010;SDS011;19370;48.562;9.196;2024-03-22T05:59:16;16.60;;;9.45;;
33010;SDS011;19370;48.562;9.196;2024-03-22T06:01:42;14.87;;;8.97;;
33010;SDS011;19370;48.562;9.196;2024-03-22T06:04:08;16.85;;;8.88;;
33010;SDS011;19370;48.562;9.196;2024-03-22T06:06:34;16.15;;;8.70;;
33010;SDS011;19370;48.562;9.196;2024-03-22T06:09:02;17.80;;;9.20;;
33010;SDS011;19370;48.562;9.196;2024-03-22T06:11:31;16.23;;;8.23;;
33010;SDS011;19370;48.562;9.196;2024-03-22T06:13:57;15.30;;;8.85;;
33010;SDS011;19370;48.562;9.196;2024-03-22T06:16:23;15.60;;;8.52;;
33010;SDS011;19370;48.562;9.196;2024-03-22T06:18:50;16.45;;;8.32;;
33010;SDS011;19370;48.562;9.196;2024-03-22T06:21:16;16.37;;;8.87;;
33010;SDS011;19370;48.562;9.196;2024-03-22T06:23:47;16.23;;;8.85;;
33010;SDS011;19370;48.562;9.196;2024-03-22T06:26:13;15.18;;;8.90;;
33010;SDS011;19370;48.562;9.196;2024-03-22T06:28:39;15.13;;;8.35;;
33010;SDS011;19370;48.562;9.196;2024-03-22T06:31:05;15.30;;;8.32;;
33010;SDS011;19370;48.562;9.196;2024-03-22T06:33:31;15.57;;;8.48;;
33010;SDS011;19370;48.562;9.196;2024-03-22T06:35:57;17.30;;;8.63;;
33010;SDS011;19370;48.562;9.196;2024-03-22T06:38:23;16.08;;;9.27;;
33010;SDS011;19370;48.562;9.196;2024-03-22T06:40:49;14.70;;;8.57;;
33010;SDS011;19370;48.562;9.196;2024-03-22T06:43:15;15.35;;;8.88;;
33010;SDS011;19370;48.562;9.196;2024-03-22T06:45:52;14.30;;;8.82;;
33010;SDS011;19370;48.562;9.196;2024-03-22T06:48:18;16.42;;;8.48;;
33010;SDS011;19370;48.562;9.196;2024-03-22T06:50:44;13.73;;;8.23;;
33010;SDS011;19370;48.562;9.196;2024-03-22T06:53:11;15.80;;;8.75;;
33010;SDS011;19370;48.562;9.196;2024-03-22T06:55:37;16.65;;;9.13;;
33010;SDS011;19370;48.562;9.196;2024-03-22T06:58:03;14.20;;;7.75;;
33010;SDS011;19370;48.562;9.196;2024-03-22T07:00:29;14.32;;;8.38;;
33010;SDS011;19370;48.562;9.196;2024-03-22T07:02:55;14.23;;;8.23;;
33010;SDS011;19370;48.562;9.196;2024-03-22T07:05:21;14.52;;;7.90;;
33010;SDS011;19370;48.562;9.196;2024-03-22T07:07:47;13.30;;;7.57;;
33010;SDS011;19370;48.562;9.196;2024-03-22T07:10:15;14.40;;;8.00;;
33010;SDS011;19370;48.562;9.196;2024-03-22T07:12:45;13.82;;;8.00;;
33010;SDS011;19370;48.562;9.196;2024-03-22T07:15:11;15.50;;;8.02;;
33010;SDS011;19370;48.562;9.196;2024-03-22T07:17:37;12.82;;;7.82;;
33010;SDS011;19370;48.562;9.196;2024-03-22T07:20:03;13.80;;;8.47;;
33010;SDS011;19370;48.562;9.196;2024-03-22T07:22:29;13.43;;;7.90;;
33010;SDS011;19370;48.562;9.196;2024-03-22T07:24:55;14.35;;;8.10;;
33010;SDS011;19370;48.562;9.196;2024-03-22T07:27:21;14.38;;;8.40;;
33010;SDS011;19370;48.562;9.196;2024-03-22T07:29:47;15.15;;;8.13;;
33010;SDS011;19370;48.562;9.196;2024-03-22T07:32:14;15.00;;;7.57;;
33010;SDS011;19370;48.562;9.196;2024-03-22T07:34:40;14.27;;;7.75;;
33010;SDS011;19370;48.562;9.196;2024-03-22T07:37:13;15.02;;;8.10;;
33010;SDS011;19370;48.562;9.196;2024-03-22T07:39:39;15.70;;;8.00;;
33010;SDS011;19370;48.562;9.196;2024-03-22T07:42:05;13.27;;;7.33;;
33010;SDS011;19370;48.562;9.196;2024-03-22T07:44:31;14.23;;;8.23;;
33010;SDS011;19370;48.562;9.196;2024-03-22T07:46:57;14.55;;;7.82;;
33010;SDS011;19370;48.562;9.196;2024-03-22T07:49:23;12.57;;;7.45;;
33010;SDS011;19370;48.562;9.196;2024-03-22T07:51:49;15.10;;;7.70;;
33010;SDS011;19370;48.562;9.196;2024-03-22T07:54:15;14.43;;;8.07;;
33010;SDS011;19370;48.562;9.196;2024-03-22T07:56:41;14.00;;;8.07;;
33010;SDS011;19370;48.562;9.196;2024-03-22T07:59:07;14.13;;;7.85;;
33010;SDS011;19370;48.562;9.196;2024-03-22T08:01:34;14.90;;;7.83;;
33010;SDS011;19370;48.562;9.196;2024-03-22T08:04:03;14.27;;;7.90;;
33010;SDS011;19370;48.562;9.196;2024-03-22T08:06:29;13.75;;;7.78;;
33010;SDS011;19370;48.562;9.196;2024-03-22T08:08:55;13.85;;;7.97;;
33010;SDS011;19370;48.562;9.196;2024-03-22T08:11:21;15.47;;;7.80;;
33010;SDS011;19370;48.562;9.196;2024-03-22T08:13:47;13.05;;;7.57;;
33010;SDS011;19370;48.562;9.196;2024-03-22T08:16:13;13.18;;;7.65;;
33010;SDS011;19370;48.562;9.196;2024-03-22T08:18:39;13.82;;;7.20;;
33010;SDS011;19370;48.562;9.196;2024-03-22T08:21:04;14.20;;;7.83;;
33010;SDS011;19370;48.562;9.196;2024-03-22T08:23:30;13.95;;;6.93;;
33010;SDS011;19370;48.562;9.196;2024-03-22T08:25:57;13.02;;;6.90;;
33010;SDS011;19370;48.562;9.196;2024-03-22T08:28:25;12.05;;;7.03;;
33010;SDS011;19370;48.562;9.196;2024-03-22T08:30:51;13.25;;;7.45;;
33010;SDS011;19370;48.562;9.196;2024-03-22T08:33:18;13.57;;;6.37;;
33010;SDS011;19370;48.562;9.196;2024-03-22T08:35:44;13.55;;;7.18;;
33010;SDS011;19370;48.562;9.196;2024-03-22T08:38:10;12.30;;;6.82;;
33010;SDS011;19370;48.562;9.196;2024-03-22T08:40:39;13.13;;;6.82;;
33010;SDS011;19370;48.562;9.196;2024-03-22T08:43:06;12.80;;;6.40;;
33010;SDS011;19370;48.562;9.196;2024-03-22T08:45:35;12.80;;;6.47;;
33010;SDS011;19370;48.562;9.196;2024-03-22T08:48:01;12.57;;;6.50;;
33010;SDS011;19370;48.562;9.196;2024-03-22T08:50:28;11.85;;;6.70;;
33010;SDS011;19370;48.562;9.196;2024-03-22T08:52:54;14.23;;;7.05;;
33010;SDS011;19370;48.562;9.196;2024-03-22T08:55:20;11.67;;;6.27;;
33010;SDS011;19370;48.562;9.196;2024-03-22T08:57:46;14.02;;;6.68;;
33010;SDS011;19370;48.562;9.196;2024-03-22T09:00:12;13.20;;;6.78;;
33010;SDS011;19370;48.562;9.196;2024-03-22T09:02:38;11.32;;;6.43;;
33010;SDS011;19370;48.562;9.196;2024-03-22T09:05:07;11.97;;;6.33;;
33010;SDS011;19370;48.562;9.196;2024-03-22T09:07:33;12.65;;;6.13;;
33010;SDS011;19370;48.562;9.196;2024-03-22T09:09:59;11.95;;;6.20;;
33010;SDS011;19370;48.562;9.196;2024-03-22T09:12:25;11.05;;;5.78;;
33010;SDS011;19370;48.562;9.196;2024-03-22T09:14:51;11.85;;;6.10;;
33010;SDS011;19370;48.562;9.196;2024-03-22T09:17:17;12.57;;;5.97;;
33010;SDS011;19370;48.562;9.196;2024-03-22T09:19:43;13.00;;;6.40;;
33010;SDS011;19370;48.562;9.196;2024-03-22T09:22:09;13.05;;;6.18;;
33010;SDS011;19370;48.562;9.196;2024-03-22T09:24:35;13.43;;;5.75;;
33010;SDS011;19370;48.562;9.196;2024-03-22T09:27:01;11.90;;;5.90;;
33010;SDS011;19370;48.562;9.196;2024-03-22T09:29:29;12.03;;;6.03;;
33010;SDS011;19370;48.562;9.196;2024-03-22T09:31:55;14.23;;;5.63;;
33010;SDS011;19370;48.562;9.196;2024-03-22T09:34:21;11.77;;;5.72;;
33010;SDS011;19370;48.562;9.196;2024-03-22T09:36:47;11.80;;;5.70;;
33010;SDS011;19370;48.562;9.196;2024-03-22T09:39:13;11.10;;;5.63;;
33010;SDS011;19370;48.562;9.196;2024-03-22T09:41:42;11.73;;;5.78;;
33010;SDS011;19370;48.562;9.196;2024-03-22T09:44:09;12.25;;;5.95;;
33010;SDS011;19370;48.562;9.196;2024-03-22T09:46:38;11.80;;;5.75;;
33010;SDS011;19370;48.562;9.196;2024-03-22T09:49:05;13.43;;;6.20;;
33010;SDS011;19370;48.562;9.196;2024-03-22T09:51:31;14.63;;;6.30;;
33010;SDS011;19370;48.562;9.196;2024-03-22T09:53:58;11.70;;;6.10;;
33010;SDS011;19370;48.562;9.196;2024-03-22T09:56:24;12.32;;;5.63;;
33010;SDS011;19370;48.562;9.196;2024-03-22T09:58:52;11.02;;;5.72;;
33010;SDS011;19370;48.562;9.196;2024-03-22T10:01:18;12.00;;;6.17;;
33010;SDS011;19370;48.562;9.196;2024-03-22T10:03:45;13.25;;;6.25;;
33010;SDS011;19370;48.562;9.196;2024-03-22T10:06:17;11.38;;;5.22;;
33010;SDS011;19370;48.562;9.196;2024-03-22T10:08:43;10.90;;;5.28;;
33010;SDS011;19370;48.562;9.196;2024-03-22T10:11:10;11.60;;;4.90;;
33010;SDS011;19370;48.562;9.196;2024-03-22T10:13:36;12.02;;;5.25;;
33010;SDS011;19370;48.562;9.196;2024-03-22T10:16:04;9.70;;;4.90;;
33010;SDS011;19370;48.562;9.196;2024-03-22T10:18:38;11.48;;;5.38;;
33010;SDS011;19370;48.562;9.196;2024-03-22T10:21:05;10.60;;;5.32;;
33010;SDS011;19370;48.562;9.196;2024-03-22T10:23:31;9.30;;;4.88;;
33010;SDS011;19370;48.562;9.196;2024-03-22T10:25:57;9.68;;;4.90;;
33010;SDS011;19370;48.562;9.196;2024-03-22T10:28:24;10.02;;;4.43;;
33010;SDS011;19370;48.562;9.196;2024-03-22T10:30:50;10.10;;;4.60;;
33010;SDS011;19370;48.562;9.196;2024-03-22T10:33:18;10.32;;;4.80;;
33010;SDS011;19370;48.562;9.196;2024-03-22T10:35:44;8.95;;;4.50;;
33010;SDS011;19370;48.562;9.196;2024-03-22T10:38:18;8.98;;;4.50;;
33010;SDS011;19370;48.562;9.196;2024-03-22T10:40:47;9.93;;;4.35;;
33010;SDS011;19370;48.562;9.196;2024-03-22T10:43:16;10.18;;;4.63;;
33010;SDS011;19370;48.562;9.196;2024-03-22T10:45:48;10.77;;;4.90;;
33010;SDS011;19370;48.562;9.196;2024-03-22T10:48:17;11.50;;;5.05;;
33010;SDS011;19370;48.562;9.196;2024-03-22T10:50:55;11.27;;;4.78;;
33010;SDS011;19370;48.562;9.196;2024-03-22T10:53:23;11.18;;;5.05;;
33010;SDS011;19370;48.562;9.196;2024-03-22T10:55:50;10.93;;;5.20;;
33010;SDS011;19370;48.562;9.196;2024-03-22T10:58:16;11.00;;;5.82;;
33010;SDS011;19370;48.562;9.196;2024-03-22T11:00:43;10.63;;;5.18;;
33010;SDS011;19370;48.562;9.196;2024-03-22T11:03:09;10.65;;;5.10;;
33010;SDS011;19370;48.562;9.196;2024-03-22T11:05:47;10.50;;;4.85;;
33010;SDS011;19370;48.562;9.196;2024-03-22T11:08:27;9.73;;;4.43;;
33010;SDS011;19370;48.562;9.196;2024-03-22T11:10:53;9.38;;;3.72;;
33010;SDS011;19370;48.562;9.196;2024-03-22T11:13:20;8.85;;;4.30;;
33010;SDS011;19370;48.562;9.196;2024-03-22T11:15:54;9.70;;;4.10;;
33010;SDS011;19370;48.562;9.196;2024-03-22T11:18:20;8.32;;;3.92;;
33010;SDS011;19370;48.562;9.196;2024-03-22T11:20:52;9.23;;;4.13;;
33010;SDS011;19370;48.562;9.196;2024-03-22T11:23:18;8.70;;;3.80;;
33010;SDS011;19370;48.562;9.196;2024-03-22T11:25:44;8.10;;;4.18;;
33010;SDS011;19370;48.562;9.196;2024-03-22T11:28:12;8.85;;;3.83;;
33010;SDS011;19370;48.562;9.196;2024-03-22T11:30:38;8.95;;;4.32;;
33010;SDS011;19370;48.562;9.196;2024-03-22T11:33:12;8.95;;;3.67;;
33010;SDS011;19370;48.562;9.196;2024-03-22T11:35:38;8.40;;;3.60;;
33010;SDS011;19370;48.562;9.196;2024-03-22T11:38:11;10.30;;;4.45;;
33010;SDS011;19370;48.562;9.196;2024-03-22T11:40:39;9.48;;;4.30;;
33010;SDS011;19370;48.562;9.196;2024-03-22T11:43:05;9.23;;;4.22;;
33010;SDS011;19370;48.562;9.196;2024-03-22T11:45:31;9.80;;;4.57;;
33010;SDS011;19370;48.562;9.196;2024-03-22T11:48:02;8.40;;;3.92;;
33010;SDS011;19370;48.562;9.196;2024-03-22T11:50:40;9.73;;;4.15;;
33010;SDS011;19370;48.562;9.196;2024-03-22T11:53:17;9.27;;;4.40;;
33010;SDS011;19370;48.562;9.196;2024-03-22T11:55:49;8.30;;;3.90;;
33010;SDS011;19370;48.562;9.196;2024-03-22T11:58:15;9.45;;;3.97;;
33010;SDS011;19370;48.562;9.196;2024-03-22T12:00:41;9.35;;;3.97;;
33010;SDS011;19370;48.562;9.196;2024-03-22T12:03:09;8.90;;;3.83;;
33010;SDS011;19370;48.562;9.196;2024-03-22T12:05:37;8.67;;;4.80;;
33010;SDS011;19370;48.562;9.196;2024-03-22T12:08:05;8.68;;;4.28;;
33010;SDS011;19370;48.562;9.196;2024-03-22T12:10:35;8.27;;;3.63;;
33010;SDS011;19370;48.562;9.196;2024-03-22T12:13:01;8.52;;;3.75;;
33010;SDS011;19370;48.562;9.196;2024-03-22T12:15:28;7.97;;;3.83;;
33010;SDS011;19370;48.562;9.196;2024-03-22T12:17:55;8.30;;;4.00;;
33010;SDS011;19370;48.562;9.196;2024-03-22T12:20:21;10.18;;;4.28;;
33010;SDS011;19370;48.562;9.196;2024-03-22T12:22:55;9.95;;;4.07;;
33010;SDS011;19370;48.562;9.196;2024-03-22T12:25:21;8.77;;;3.72;;
33010;SDS011;19370;48.562;9.196;2024-03-22T12:27:47;9.00;;;3.45;;
33010;SDS011;19370;48.562;9.196;2024-03-22T12:30:13;7.33;;;3.37;;
33010;SDS011;19370;48.562;9.196;2024-03-22T12:32:42;7.60;;;3.30;;
33010;SDS011;19370;48.562;9.196;2024-03-22T12:35:08;7.72;;;3.05;;
33010;SDS011;19370;48.562;9.196;2024-03-22T12:37:34;8.48;;;3.53;;
33010;SDS011;19370;48.562;9.196;2024-03-22T12:40:00;10.20;;;3.78;;
33010;SDS011;19370;48.562;9.196;2024-03-22T12:42:27;9.70;;;4.27;;
33010;SDS011;19370;48.562;9.196;2024-03-22T12:44:55;8.38;;;3.28;;
33010;SDS011;19370;48.562;9.196;2024-03-22T12:47:21;8.98;;;2.90;;
33010;SDS011;19370;48.562;9.196;2024-03-22T12:49:48;8.45;;;3.10;;
33010;SDS011;19370;48.562;9.196;2024-03-22T12:52:14;7.75;;;3.00;;
33010;SDS011;19370;48.562;9.196;2024-03-22T12:54:40;7.10;;;2.60;;
33010;SDS011;19370;48.562;9.196;2024-03-22T12:57:06;7.10;;;2.60;;
33010;SDS011;19370;48.562;9.196;2024-03-22T12:59:34;6.25;;;2.40;;
33010;SDS011;19370;48.562;9.196;2024-03-22T13:02:01;8.18;;;3.10;;
33010;SDS011;19370;48.562;9.196;2024-03-22T13:04:27;7.87;;;2.90;;
33010;SDS011;19370;48.562;9.196;2024-03-22T13:06:53;7.32;;;2.70;;
33010;SDS011;19370;48.562;9.196;2024-03-22T13:09:20;6.47;;;2.50;;
33010;SDS011;19370;48.562;9.196;2024-03-22T13:11:47;6.70;;;2.30;;
33010;SDS011;19370;48.562;9.196;2024-03-22T13:14:13;6.53;;;2.67;;
33010;SDS011;19370;48.562;9.196;2024-03-22T13:16:39;7.30;;;2.27;;
33010;SDS011;19370;48.562;9.196;2024-03-22T13:19:11;6.05;;;2.30;;
33010;SDS011;19370;48.562;9.196;2024-03-22T13:21:38;7.35;;;2.70;;
33010;SDS011;19370;48.562;9.196;2024-03-22T13:24:04;7.30;;;2.58;;
33010;SDS011;19370;48.562;9.196;2024-03-22T13:26:31;7.18;;;2.58;;
33010;SDS011;19370;48.562;9.196;2024-03-22T13:28:57;7.53;;;2.40;;
33010;SDS011;19370;48.562;9.196;2024-03-22T13:31:23;8.20;;;2.30;;
33010;SDS011;19370;48.562;9.196;2024-03-22T13:33:50;7.00;;;2.20;;
33010;SDS011;19370;48.562;9.196;2024-03-22T13:36:16;6.70;;;2.13;;
33010;SDS011;19370;48.562;9.196;2024-03-22T13:38:43;6.35;;;2.25;;
33010;SDS011;19370;48.562;9.196;2024-03-22T13:41:09;7.60;;;2.60;;
33010;SDS011;19370;48.562;9.196;2024-03-22T13:43:39;6.32;;;2.50;;
33010;SDS011;19370;48.562;9.196;2024-03-22T13:46:07;5.70;;;2.10;;
33010;SDS011;19370;48.562;9.196;2024-03-22T13:48:37;7.28;;;2.28;;
33010;SDS011;19370;48.562;9.196;2024-03-22T13:51:18;7.57;;;2.17;;
33010;SDS011;19370;48.562;9.196;2024-03-22T13:53:44;6.27;;;2.20;;
33010;SDS011;19370;48.562;9.196;2024-03-22T13:56:10;6.80;;;1.90;;
33010;SDS011;19370;48.562;9.196;2024-03-22T13:58:36;7.00;;;2.45;;
33010;SDS011;19370;48.562;9.196;2024-03-22T14:03:38;6.20;;;2.15;;
33010;SDS011;19370;48.562;9.196;2024-03-22T14:06:04;6.73;;;2.23;;
33010;SDS011;19370;48.562;9.196;2024-03-22T14:08:31;5.90;;;2.10;;
33010;SDS011;19370;48.562;9.196;2024-03-22T14:10:57;6.15;;;2.20;;
33010;SDS011;19370;48.562;9.196;2024-03-22T14:13:31;5.68;;;2.00;;
33010;SDS011;19370;48.562;9.196;2024-03-22T14:15:57;6.65;;;2.10;;
33010;SDS011;19370;48.562;9.196;2024-03-22T14:18:26;6.10;;;2.30;;
33010;SDS011;19370;48.562;9.196;2024-03-22T14:20:52;6.93;;;2.13;;
33010;SDS011;19370;48.562;9.196;2024-03-22T14:23:19;6.35;;;2.20;;
33010;SDS011;19370;48.562;9.196;2024-03-22T14:25:45;6.35;;;2.15;;
33010;SDS011;19370;48.562;9.196;2024-03-22T14:28:12;7.40;;;2.10;;
33010;SDS011;19370;48.562;9.196;2024-03-22T14:30:39;6.33;;;2.03;;
33010;SDS011;19370;48.562;9.196;2024-03-22T14:33:06;5.85;;;1.92;;
33010;SDS011;19370;48.562;9.196;2024-03-22T14:35:32;5.75;;;2.10;;
33010;SDS011;19370;48.562;9.196;2024-03-22T14:37:59;7.05;;;2.08;;
33010;SDS011;19370;48.562;9.196;2024-03-22T14:40:32;7.03;;;2.00;;
33010;SDS011;19370;48.562;9.196;2024-03-22T14:43:01;6.57;;;2.23;;
33010;SDS011;19370;48.562;9.196;2024-03-22T14:45:27;6.13;;;2.20;;
33010;SDS011;19370;48.562;9.196;2024-03-22T14:47:53;5.95;;;2.10;;